createdAt,value
2023-04-01T00:01:58.389Z,10.80
2023-04-01T00:04:46.845Z,10.80
2023-04-01T00:07:34.894Z,10.88
2023-04-01T00:10:22.664Z,10.91
2023-04-01T00:13:10.574Z,10.87
2023-04-01T00:16:00.147Z,10.79
2023-04-01T00:18:48.851Z,10.73
2023-04-01T00:21:38.043Z,10.57
2023-04-01T00:24:26.236Z,10.75
2023-04-01T00:27:14.018Z,10.80
2023-04-01T00:30:02.261Z,10.77
2023-04-01T00:32:54.161Z,10.83
2023-04-01T00:35:41.898Z,10.74
2023-04-01T00:38:29.599Z,10.67
2023-04-01T00:41:18.299Z,10.64
2023-04-01T00:44:24.638Z,10.31
2023-04-01T00:47:12.483Z,10.61
2023-04-01T00:50:01.009Z,10.68
2023-04-01T00:52:48.772Z,10.49
2023-04-01T00:55:40.601Z,10.79
2023-04-01T00:58:32.959Z,9.99
2023-04-01T01:01:23.436Z,10.50
2023-04-01T01:04:40.604Z,10.73
2023-04-01T01:07:49.422Z,10.84
2023-04-01T01:10:40.261Z,10.75
2023-04-01T01:13:51.934Z,10.65
2023-04-01T01:16:47.397Z,10.10
2023-04-01T01:19:54.243Z,10.69
2023-04-01T01:23:04.215Z,10.59
2023-04-01T01:26:09.558Z,10.52
2023-04-01T01:29:24.208Z,10.47
2023-04-01T01:32:39.520Z,10.46
2023-04-01T01:35:48.750Z,10.39
2023-04-01T01:38:40.312Z,10.32
2023-04-01T01:41:29.903Z,10.11
2023-04-01T01:44:19.165Z,10.35
2023-04-01T01:47:07.234Z,10.29
2023-04-01T01:49:56.787Z,10.06
2023-04-01T01:52:44.552Z,10.11
2023-04-01T01:55:36.608Z,10.16
2023-04-01T01:58:26.617Z,10.15
2023-04-01T02:01:18.789Z,9.99
2023-04-01T02:04:12.370Z,10.22
2023-04-01T02:07:06.411Z,10.25
2023-04-01T02:09:54.690Z,10.26
2023-04-01T02:12:48.035Z,10.11
2023-04-01T02:15:41.948Z,10.31
2023-04-01T02:18:31.326Z,10.40
2023-04-01T02:21:21.664Z,10.37
2023-04-01T02:24:14.284Z,10.29
2023-04-01T02:27:02.143Z,10.39
2023-04-01T02:29:52.392Z,10.31
2023-04-01T02:32:41.156Z,10.38
2023-04-01T02:35:29.029Z,10.44
2023-04-01T02:38:16.992Z,10.37
2023-04-01T02:41:07.379Z,10.38
2023-04-01T02:44:04.917Z,10.39
2023-04-01T02:46:53.957Z,10.21
2023-04-01T02:49:42.926Z,10.30
2023-04-01T02:52:31.045Z,10.32
2023-04-01T02:55:22.040Z,10.21
2023-04-01T02:58:09.938Z,10.56
2023-04-01T03:00:57.618Z,10.40
2023-04-01T03:03:45.700Z,10.21
2023-04-01T03:06:33.321Z,10.41
2023-04-01T03:09:21.110Z,10.35
2023-04-01T03:12:08.721Z,10.62
2023-04-01T03:15:11.434Z,10.65
2023-04-01T03:18:00.605Z,10.67
2023-04-01T03:20:48.530Z,10.71
2023-04-01T03:23:36.350Z,10.54
2023-04-01T03:26:24.235Z,10.67
2023-04-01T03:29:12.027Z,10.66
2023-04-01T03:32:00.158Z,10.56
2023-04-01T03:34:48.246Z,10.53
2023-04-01T03:37:36.205Z,10.62
2023-04-01T03:40:24.327Z,10.51
2023-04-01T03:43:18.209Z,10.69
2023-04-01T03:46:06.194Z,10.84
2023-04-01T03:48:54.057Z,10.74
2023-04-01T03:51:44.135Z,10.73
2023-04-01T03:54:31.964Z,10.70
2023-04-01T03:57:20.268Z,10.65
2023-04-01T04:00:10.051Z,10.69
2023-04-01T04:03:01.867Z,10.63
2023-04-01T04:05:53.721Z,10.62
2023-04-01T04:08:41.584Z,10.67
2023-04-01T04:11:29.462Z,10.35
2023-04-01T04:14:17.540Z,10.73
2023-04-01T04:17:07.397Z,10.72
2023-04-01T04:19:55.051Z,10.96
2023-04-01T04:22:43.258Z,11.27
2023-04-01T04:25:31.347Z,11.15
2023-04-01T04:28:19.208Z,11.11
2023-04-01T04:31:07.902Z,11.15
2023-04-01T04:33:57.014Z,10.99
2023-04-01T04:36:44.681Z,11.00
2023-04-01T04:39:33.236Z,10.95
2023-04-01T04:42:20.931Z,10.94
2023-04-01T04:45:09.071Z,10.92
2023-04-01T04:48:00.331Z,10.93
2023-04-01T04:50:50.822Z,10.87
2023-04-01T04:53:40.642Z,11.00
2023-04-01T04:56:28.401Z,11.10
2023-04-01T04:59:24.615Z,11.08
2023-04-01T05:02:38.592Z,10.88
2023-04-01T05:05:26.291Z,11.28
2023-04-01T05:08:13.949Z,11.58
2023-04-01T05:11:02.477Z,11.56
2023-04-01T05:13:51.835Z,11.93
2023-04-01T05:16:40.022Z,12.03
2023-04-01T05:19:27.844Z,12.15
2023-04-01T05:22:15.746Z,11.74
2023-04-01T05:25:10.930Z,12.08
2023-04-01T05:27:58.532Z,12.16
2023-04-01T05:30:46.665Z,12.05
2023-04-01T05:33:46.205Z,12.16
2023-04-01T05:36:34.037Z,12.23
2023-04-01T05:39:21.871Z,12.25
2023-04-01T05:42:09.997Z,12.23
2023-04-01T05:44:57.743Z,12.00
2023-04-01T05:48:04.211Z,12.12
2023-04-01T05:50:57.805Z,12.22
2023-04-01T05:53:45.772Z,12.21
2023-04-01T05:56:34.865Z,12.41
2023-04-01T05:59:23.285Z,12.37
2023-04-01T06:02:14.110Z,12.21
2023-04-01T06:05:16.170Z,12.59
2023-04-01T06:08:12.292Z,12.65
2023-04-01T06:11:03.092Z,12.77
2023-04-01T06:14:06.796Z,12.67
2023-04-01T06:16:56.058Z,12.86
2023-04-01T06:20:13.665Z,12.88
2023-04-01T06:23:55.736Z,12.92
2023-04-01T06:27:11.544Z,12.99
2023-04-01T06:30:26.191Z,13.15
2023-04-01T06:33:27.381Z,13.16
2023-04-01T06:36:36.449Z,13.28
2023-04-01T06:39:33.166Z,13.34
2023-04-01T06:42:33.456Z,13.40
2023-04-01T06:45:44.295Z,13.52
2023-04-01T06:49:19.208Z,13.68
2023-04-01T06:52:57.558Z,13.87
2023-04-01T06:56:11.345Z,13.92
2023-04-01T06:59:26.397Z,14.04
2023-04-01T07:02:32.736Z,14.10
2023-04-01T07:05:21.421Z,14.22
2023-04-01T07:08:18.827Z,14.46
2023-04-01T07:11:27.609Z,14.52
2023-04-01T07:14:54.734Z,14.57
2023-04-01T07:17:45.146Z,14.65
2023-04-01T07:20:38.972Z,14.80
2023-04-01T07:23:33.440Z,14.88
2023-04-01T07:26:29.905Z,14.96
2023-04-01T07:29:32.080Z,14.91
2023-04-01T07:32:24.145Z,14.95
2023-04-01T07:35:25.616Z,14.85
2023-04-01T07:38:44.800Z,15.00
2023-04-01T07:41:51.491Z,15.06
2023-04-01T07:44:59.600Z,15.24
2023-04-01T07:48:24.780Z,15.50
2023-04-01T07:51:24.947Z,15.73
2023-04-01T07:54:23.137Z,15.77
2023-04-01T07:57:11.378Z,15.99
2023-04-01T08:00:26.910Z,16.20
2023-04-01T08:03:36.925Z,16.18
2023-04-01T08:06:38.535Z,16.24
2023-04-01T08:09:55.624Z,16.05
2023-04-01T08:13:08.081Z,16.30
2023-04-01T08:16:20.191Z,16.65
2023-04-01T08:19:41.572Z,17.05
2023-04-01T08:22:44.675Z,16.96
2023-04-01T08:25:45.952Z,16.38
2023-04-01T08:28:41.769Z,16.21
2023-04-01T08:32:07.263Z,15.89
2023-04-01T08:35:17.028Z,15.83
2023-04-01T08:38:17.594Z,15.46
2023-04-01T08:41:43.010Z,15.79
2023-04-01T08:45:08.599Z,16.04
2023-04-01T08:48:28.844Z,16.39
2023-04-01T08:51:42.593Z,16.50
2023-04-01T08:54:56.744Z,16.29
2023-04-01T08:58:44.197Z,16.05
2023-04-01T09:02:05.930Z,15.98
2023-04-01T09:05:24.081Z,16.00
2023-04-01T09:08:36.671Z,16.17
2023-04-01T09:12:03.385Z,16.96
2023-04-01T09:15:17.720Z,18.20
2023-04-01T09:18:33.420Z,18.62
2023-04-01T09:21:38.904Z,17.97
2023-04-01T09:24:40.325Z,17.39
2023-04-01T09:27:37.023Z,17.55
2023-04-01T09:31:02.965Z,17.62
2023-04-01T09:34:09.035Z,17.37
2023-04-01T09:37:36.399Z,17.10
2023-04-01T09:40:48.565Z,17.80
2023-04-01T09:44:01.161Z,17.90
2023-04-01T09:46:58.609Z,18.07
2023-04-01T09:50:12.220Z,18.39
2023-04-01T09:53:08.309Z,18.10
2023-04-01T09:56:14.194Z,18.65
2023-04-01T09:59:33.980Z,18.90
2023-04-01T10:03:07.519Z,19.35
2023-04-01T10:06:38.233Z,19.67
2023-04-01T10:10:18.609Z,19.49
2023-04-01T10:13:57.625Z,19.59
2023-04-01T10:17:21.653Z,20.40
2023-04-01T10:20:24.271Z,20.80
2023-04-01T10:23:36.393Z,20.18
2023-04-01T10:26:55.081Z,20.17
2023-04-01T10:30:23.396Z,20.10
2023-04-01T10:33:44.890Z,18.57
2023-04-01T10:36:49.253Z,18.46
2023-04-01T10:39:53.545Z,18.48
2023-04-01T10:43:03.817Z,18.66
2023-04-01T10:46:23.230Z,18.34
2023-04-01T10:49:39.024Z,17.85
2023-04-01T10:52:52.615Z,17.49
2023-04-01T10:56:29.494Z,17.43
2023-04-01T11:00:11.128Z,17.49
2023-04-01T11:03:48.104Z,17.93
2023-04-01T11:07:09.348Z,17.72
2023-04-01T11:10:27.401Z,17.42
2023-04-01T11:13:51.187Z,17.20
2023-04-01T11:16:57.270Z,17.16
2023-04-01T11:20:13.015Z,16.86
2023-04-01T11:23:24.758Z,16.56
2023-04-01T11:26:51.549Z,16.19
2023-04-01T11:30:30.671Z,16.13
2023-04-01T11:33:27.696Z,15.84
2023-04-01T11:36:37.755Z,15.60
2023-04-01T11:39:33.969Z,15.58
2023-04-01T11:42:51.570Z,15.06
2023-04-01T11:46:07.066Z,15.09
2023-04-01T11:49:07.098Z,15.82
2023-04-01T11:52:23.148Z,16.17
2023-04-01T11:55:29.962Z,16.13
2023-04-01T11:58:20.491Z,15.83
2023-04-01T12:01:26.727Z,16.43
2023-04-01T12:04:26.593Z,16.45
2023-04-01T12:07:23.337Z,16.22
2023-04-01T12:10:18.865Z,15.73
2023-04-01T12:13:27.570Z,15.49
2023-04-01T12:16:40.907Z,15.68
2023-04-01T12:20:13.086Z,15.83
2023-04-01T12:23:16.436Z,15.67
2023-04-01T12:26:22.913Z,15.49
2023-04-01T12:29:22.910Z,15.31
2023-04-01T12:32:35.169Z,15.21
2023-04-01T12:35:48.801Z,14.83
2023-04-01T12:38:54.919Z,14.53
2023-04-01T12:42:01.161Z,14.65
2023-04-01T12:45:02.770Z,14.16
2023-04-01T12:48:02.592Z,14.10
2023-04-01T12:51:37.924Z,14.08
2023-04-01T12:54:54.633Z,13.97
2023-04-01T12:57:57.273Z,13.83
2023-04-01T13:00:45.210Z,13.63
2023-04-01T13:03:44.741Z,13.64
2023-04-01T13:06:38.489Z,13.38
2023-04-01T13:09:32.814Z,13.13
2023-04-01T13:12:41.510Z,13.10
2023-04-01T13:15:54.009Z,13.05
2023-04-01T13:19:09.967Z,12.99
2023-04-01T13:22:23.571Z,13.02
2023-04-01T13:25:27.208Z,12.91
2023-04-01T13:28:21.979Z,12.96
2023-04-01T13:31:40.516Z,13.13
2023-04-01T13:34:59.199Z,13.36
2023-04-01T13:37:49.728Z,13.57
2023-04-01T13:41:06.393Z,13.56
2023-04-01T13:44:01.278Z,13.66
2023-04-01T13:46:55.145Z,13.84
2023-04-01T13:49:48.577Z,14.02
2023-04-01T13:53:06.462Z,14.18
2023-04-01T13:56:06.105Z,14.17
2023-04-01T13:58:56.509Z,14.44
2023-04-01T14:01:49.680Z,14.55
2023-04-01T14:04:49.426Z,14.88
2023-04-01T14:07:55.325Z,14.82
2023-04-01T14:10:53.865Z,15.05
2023-04-01T14:13:51.592Z,15.15
2023-04-01T14:17:28.677Z,15.02
2023-04-01T14:20:43.838Z,14.64
2023-04-01T14:24:10.018Z,14.76
2023-04-01T14:27:29.288Z,14.76
2023-04-01T14:30:41.054Z,14.89
2023-04-01T14:33:56.446Z,14.86
2023-04-01T14:36:44.053Z,14.77
2023-04-01T14:40:08.814Z,14.72
2023-04-01T14:43:17.072Z,14.94
2023-04-01T14:46:11.131Z,14.75
2023-04-01T14:49:15.011Z,14.41
2023-04-01T14:52:15.860Z,14.56
2023-04-01T14:55:28.560Z,14.42
2023-04-01T14:58:18.590Z,14.09
2023-04-01T15:01:43.639Z,14.31
2023-04-01T15:05:12.233Z,14.22
2023-04-01T15:08:11.785Z,14.08
2023-04-01T15:11:27.462Z,13.84
2023-04-01T15:14:21.537Z,13.69
2023-04-01T15:17:28.839Z,13.59
2023-04-01T15:20:35.749Z,13.57
2023-04-01T15:23:52.724Z,13.51
2023-04-01T15:26:46.152Z,13.49
2023-04-01T15:29:51.994Z,13.30
2023-04-01T15:32:56.519Z,13.36
2023-04-01T15:36:01.499Z,13.38
2023-04-01T15:39:18.159Z,13.34
2023-04-01T15:42:36.417Z,13.21
2023-04-01T15:45:36.367Z,12.96
2023-04-01T15:49:00.694Z,13.18
2023-04-01T15:51:51.368Z,12.91
2023-04-01T15:55:07.807Z,13.07
2023-04-01T15:58:25.437Z,13.17
2023-04-01T16:01:43.372Z,12.44
2023-04-01T16:04:36.687Z,11.71
2023-04-01T16:07:42.929Z,11.26
2023-04-01T16:10:56.572Z,11.01
2023-04-01T16:13:58.404Z,11.29
2023-04-01T16:16:58.074Z,11.17
2023-04-01T16:19:51.668Z,10.99
2023-04-01T16:22:54.873Z,11.16
2023-04-01T16:25:52.262Z,10.91
2023-04-01T16:29:00.727Z,11.19
2023-04-01T16:31:59.397Z,11.06
2023-04-01T16:35:14.565Z,11.16
2023-04-01T16:38:20.230Z,10.61
2023-04-01T16:41:30.033Z,11.06
2023-04-01T16:44:26.565Z,11.08
2023-04-01T16:47:32.618Z,11.20
2023-04-01T16:50:28.988Z,11.15
2023-04-01T16:53:36.857Z,11.03
2023-04-01T16:56:40.777Z,10.99
2023-04-01T16:59:42.090Z,11.09
2023-04-01T17:02:36.975Z,10.92
2023-04-01T17:05:57.020Z,10.82
2023-04-01T17:09:02.018Z,10.62
2023-04-01T17:12:12.084Z,10.79
2023-04-01T17:15:18.347Z,10.84
2023-04-01T17:18:08.857Z,10.89
2023-04-01T17:21:05.021Z,10.74
2023-04-01T17:24:01.059Z,10.82
2023-04-01T17:27:17.770Z,10.86
2023-04-01T17:30:08.545Z,10.78
2023-04-01T17:33:08.023Z,10.71
2023-04-01T17:36:27.819Z,10.71
2023-04-01T17:39:36.536Z,10.61
2023-04-01T17:42:43.210Z,10.75
2023-04-01T17:45:52.014Z,10.68
2023-04-01T17:49:10.633Z,10.52
2023-04-01T17:52:35.239Z,10.53
2023-04-01T17:55:41.182Z,10.27
2023-04-01T17:58:51.356Z,10.34
2023-04-01T18:02:00.102Z,10.15
2023-04-01T18:05:24.049Z,10.14
2023-04-01T18:08:47.572Z,9.98
2023-04-01T18:11:40.728Z,9.91
2023-04-01T18:14:56.259Z,9.87
2023-04-01T18:18:02.319Z,9.86
2023-04-01T18:20:49.948Z,9.77
2023-04-01T18:23:59.164Z,9.75
2023-04-01T18:27:02.611Z,9.61
2023-04-01T18:29:55.826Z,9.67
2023-04-01T18:33:15.326Z,9.66
2023-04-01T18:36:22.935Z,9.70
2023-04-01T18:39:32.120Z,8.89
2023-04-01T18:42:46.807Z,9.54
2023-04-01T18:45:42.117Z,9.53
2023-04-01T18:49:03.966Z,9.55
2023-04-01T18:52:00.810Z,9.29
2023-04-01T18:55:17.104Z,9.47
2023-04-01T18:58:29.157Z,9.34
2023-04-01T19:01:25.925Z,9.34
2023-04-01T19:04:35.435Z,9.32
2023-04-01T19:07:42.635Z,9.42
2023-04-01T19:10:57.554Z,9.34
2023-04-01T19:13:59.821Z,9.11
2023-04-01T19:17:17.590Z,9.39
2023-04-01T19:20:30.624Z,9.46
2023-04-01T19:23:42.364Z,9.43
2023-04-01T19:26:32.857Z,9.54
2023-04-01T19:29:34.605Z,9.53
2023-04-01T19:32:40.720Z,9.54
2023-04-01T19:35:37.254Z,9.55
2023-04-01T19:38:53.530Z,9.52
2023-04-01T19:41:53.189Z,9.40
2023-04-01T19:45:02.191Z,9.02
2023-04-01T19:47:55.843Z,9.11
2023-04-01T19:50:55.650Z,8.99
2023-04-01T19:53:52.731Z,8.96
2023-04-01T19:57:03.839Z,8.94
2023-04-01T20:00:15.928Z,8.92
2023-04-01T20:03:44.962Z,8.83
2023-04-01T20:06:52.037Z,8.88
2023-04-01T20:10:01.299Z,8.92
2023-04-01T20:13:02.992Z,8.93
2023-04-01T20:16:07.321Z,8.83
2023-04-01T20:19:01.232Z,8.69
2023-04-01T20:21:53.473Z,8.99
2023-04-01T20:24:47.892Z,9.03
2023-04-01T20:27:43.276Z,9.11
2023-04-01T20:31:09.008Z,9.16
2023-04-01T20:34:42.386Z,9.20
2023-04-01T20:38:15.889Z,9.08
2023-04-01T20:41:35.811Z,9.18
2023-04-01T20:44:48.093Z,9.17
2023-04-01T20:47:57.225Z,9.05
2023-04-01T20:51:45.156Z,8.99
2023-04-01T20:54:43.850Z,8.75
2023-04-01T20:57:41.762Z,8.83
2023-04-01T21:00:35.285Z,8.60
2023-04-01T21:03:52.874Z,8.77
2023-04-01T21:06:53.933Z,8.56
2023-04-01T21:10:02.975Z,8.80
2023-04-01T21:13:09.817Z,8.78
2023-04-01T21:16:00.218Z,8.67
2023-04-01T21:19:09.835Z,8.82
2023-04-01T21:22:28.620Z,8.98
2023-04-01T21:25:30.652Z,9.00
2023-04-01T21:28:24.502Z,9.11
2023-04-01T21:31:30.099Z,9.07
2023-04-01T21:35:05.207Z,9.09
2023-04-01T21:38:17.699Z,9.17
2023-04-01T21:41:05.594Z,9.12
2023-04-01T21:44:34.945Z,9.18
2023-04-01T21:47:44.108Z,9.18
2023-04-01T21:50:43.737Z,9.12
2023-04-01T21:53:46.490Z,9.17
2023-04-01T21:56:36.837Z,9.21
2023-04-01T21:59:36.238Z,9.23
2023-04-01T22:02:36.021Z,9.24
2023-04-01T22:05:32.392Z,9.12
2023-04-01T22:08:38.201Z,9.26
2023-04-01T22:11:33.799Z,9.29
2023-04-01T22:14:50.503Z,9.25
2023-04-01T22:17:54.474Z,9.26
2023-04-01T22:20:49.378Z,9.34
2023-04-01T22:24:06.305Z,9.29
2023-04-01T22:27:00.156Z,9.20
2023-04-01T22:30:18.546Z,9.19
2023-04-01T22:33:43.557Z,9.20
2023-04-01T22:36:39.257Z,8.93
2023-04-01T22:39:56.182Z,9.17
2023-04-01T22:42:46.633Z,9.17
2023-04-01T22:45:58.293Z,9.22
2023-04-01T22:48:56.179Z,9.22
2023-04-01T22:52:08.888Z,9.08
2023-04-01T22:54:59.549Z,9.20
2023-04-01T22:58:07.175Z,9.22
2023-04-01T23:00:59.861Z,9.30
2023-04-01T23:03:52.687Z,9.21
2023-04-01T23:06:56.736Z,9.12
2023-04-01T23:09:45.248Z,9.11
2023-04-01T23:12:34.825Z,9.07
2023-04-01T23:15:23.100Z,9.16
2023-04-01T23:18:22.146Z,8.73
2023-04-01T23:21:22.198Z,9.04
2023-04-01T23:24:34.287Z,9.07
2023-04-01T23:27:36.291Z,8.67
2023-04-01T23:30:44.175Z,8.85
2023-04-01T23:33:32.949Z,8.83
2023-04-01T23:36:20.899Z,8.64
2023-04-01T23:39:23.854Z,8.64
2023-04-01T23:42:29.461Z,8.62
2023-04-01T23:45:21.955Z,8.42
2023-04-01T23:48:17.665Z,8.59
2023-04-01T23:51:23.024Z,8.70
2023-04-01T23:54:24.580Z,8.66
2023-04-01T23:57:19.068Z,8.76
